Time;durP1;ratioP1;P1;durP2;ratioP2;P2;SDS_P1;SDS_P2;PMS_P1;PMS_P2;Temp;Humidity;BMP_temperature;BMP_pressure;BME280_temperature;BME280_humidity;BME280_pressure;Samples;Min_cycle;Max_cycle;Signal;HPM_P1;HPM_P2
2022/07/27 00:02:06;;;;;;;6.95;3.13;;;13.10;99.90;;;;;;5042719;28;20072;-73
2022/07/27 00:04:31;;;;;;;4.15;2.70;;;13.20;99.90;;;;;;5044735;28;20116;-73
2022/07/27 00:06:57;;;;;;;4.28;2.88;;;13.10;99.90;;;;;;5042809;28;20602;-73
2022/07/27 00:09:23;;;;;;;4.05;2.40;;;13.10;99.90;;;;;;5043065;28;20040;-72
2022/07/27 00:11:49;;;;;;;6.15;2.72;;;13.10;99.90;;;;;;5044805;28;20037;-72
2022/07/27 00:14:14;;;;;;;5.68;2.78;;;13.00;99.90;;;;;;5044287;28;20111;-72
2022/07/27 00:16:40;;;;;;;5.80;2.75;;;12.90;99.90;;;;;;5046682;28;20044;-71
2022/07/27 00:19:06;;;;;;;4.03;2.55;;;12.90;99.90;;;;;;5026394;28;20048;-73
2022/07/27 00:21:32;;;;;;;5.53;2.38;;;12.80;99.90;;;;;;5029457;28;20049;-72
2022/07/27 00:23:57;;;;;;;4.05;2.40;;;12.80;99.90;;;;;;5048230;28;20033;-73
2022/07/27 00:26:23;;;;;;;4.72;2.30;;;12.70;99.90;;;;;;5042098;28;20080;-72
2022/07/27 00:28:49;;;;;;;3.92;2.28;;;12.70;99.90;;;;;;5033516;28;20041;-73
2022/07/27 00:31:16;;;;;;;5.90;2.83;;;12.70;99.90;;;;;;5043330;28;20473;-72
2022/07/27 00:33:41;;;;;;;4.70;2.58;;;12.60;99.90;;;;;;5040359;28;20034;-73
2022/07/27 00:36:07;;;;;;;4.22;2.30;;;12.60;99.90;;;;;;5042864;28;20134;-73
2022/07/27 00:38:33;;;;;;;4.13;2.30;;;12.60;99.90;;;;;;5026577;28;20045;-73
2022/07/27 00:40:58;;;;;;;4.05;2.00;;;12.50;99.90;;;;;;5040545;28;20060;-74
2022/07/27 00:43:24;;;;;;;3.72;2.50;;;12.50;99.90;;;;;;5042502;28;20121;-73
2022/07/27 00:45:50;;;;;;;3.80;2.67;;;12.70;99.90;;;;;;5041679;28;20128;-73
2022/07/27 00:48:15;;;;;;;5.30;2.28;;;12.50;99.90;;;;;;5042069;28;20045;-73
2022/07/27 00:50:42;;;;;;;3.90;2.05;;;12.50;99.90;;;;;;5043634;28;20048;-73
2022/07/27 00:53:08;;;;;;;7.07;2.03;;;12.50;99.90;;;;;;5045548;28;20082;-73
2022/07/27 00:55:35;;;;;;;4.35;3.00;;;12.50;99.90;;;;;;5041460;28;20049;-74
2022/07/27 00:58:04;;;;;;;3.60;2.28;;;12.40;99.90;;;;;;5036027;28;20049;-71
2022/07/27 01:00:30;;;;;;;6.10;2.40;;;12.40;99.90;;;;;;5045095;28;20404;-71
2022/07/27 01:02:56;;;;;;;4.40;2.53;;;12.50;99.90;;;;;;5040973;28;20037;-70
2022/07/27 01:05:21;;;;;;;5.05;2.28;;;12.50;99.90;;;;;;5043635;28;20531;-69
2022/07/27 01:07:50;;;;;;;4.93;2.08;;;12.50;99.90;;;;;;5042715;28;20183;-70
2022/07/27 01:10:17;;;;;;;5.38;2.15;;;12.40;99.90;;;;;;5041239;28;20064;-71
2022/07/27 01:12:44;;;;;;;6.90;2.47;;;12.50;99.90;;;;;;5041638;28;20036;-70
2022/07/27 01:15:11;;;;;;;4.22;2.58;;;12.50;99.90;;;;;;5040068;28;20497;-71
2022/07/27 01:17:37;;;;;;;7.00;2.47;;;12.50;99.90;;;;;;5043563;28;20125;-70
2022/07/27 01:20:04;;;;;;;4.63;2.53;;;12.50;99.90;;;;;;5042179;28;20045;-69
2022/07/27 01:22:29;;;;;;;6.00;2.53;;;12.60;99.90;;;;;;5045286;28;20037;-69
2022/07/27 01:24:55;;;;;;;5.15;2.22;;;12.60;99.90;;;;;;5030922;28;20048;-70
2022/07/27 01:27:21;;;;;;;4.90;2.13;;;12.60;99.90;;;;;;5040871;28;20045;-70
2022/07/27 01:29:47;;;;;;;4.70;2.20;;;12.60;99.90;;;;;;5042759;28;20072;-74
2022/07/27 01:32:13;;;;;;;3.08;2.17;;;12.70;99.90;;;;;;5038772;28;20398;-73
2022/07/27 01:34:39;;;;;;;6.60;2.55;;;12.80;99.90;;;;;;5042309;28;20072;-72
2022/07/27 01:37:04;;;;;;;4.13;2.65;;;12.80;99.90;;;;;;5027058;28;20513;-73
2022/07/27 01:39:31;;;;;;;2.75;2.05;;;12.80;99.90;;;;;;5039411;28;20040;-72
2022/07/27 01:41:57;;;;;;;4.95;2.40;;;12.90;99.90;;;;;;5037182;28;20421;-72
2022/07/27 01:44:23;;;;;;;5.30;2.28;;;12.90;99.90;;;;;;5041506;28;20033;-72
2022/07/27 01:46:49;;;;;;;3.10;2.10;;;12.90;99.90;;;;;;5045788;28;20090;-71
2022/07/27 01:49:15;;;;;;;7.47;2.33;;;12.90;99.90;;;;;;5042104;28;20041;-71
2022/07/27 01:51:43;;;;;;;5.60;2.10;;;;;;;;;;5023818;28;20044;-73
2022/07/27 01:54:09;;;;;;;4.65;1.77;;;13.00;99.90;;;;;;5043796;28;20044;-71
2022/07/27 01:56:35;;;;;;;4.38;2.10;;;13.00;99.90;;;;;;5043506;28;20417;-72
2022/07/27 01:59:00;;;;;;;3.17;1.90;;;13.00;99.90;;;;;;5043790;28;20063;-72
2022/07/27 02:01:26;;;;;;;7.22;2.55;;;13.00;99.90;;;;;;5043075;28;20040;-72
2022/07/27 02:03:52;;;;;;;3.78;2.33;;;13.00;99.90;;;;;;5044096;28;20041;-72
2022/07/27 02:06:17;;;;;;;4.63;1.90;;;13.00;99.90;;;;;;5040890;28;20044;-72
2022/07/27 02:08:43;;;;;;;5.25;2.20;;;13.00;99.90;;;;;;5025987;28;20571;-71
2022/07/27 02:13:52;;;;;;;6.65;2.30;;;13.10;99.90;;;;;;5043782;28;20041;-72
2022/07/27 02:16:18;;;;;;;4.72;2.00;;;13.10;99.90;;;;;;5037599;28;20037;-72
2022/07/27 02:18:45;;;;;;;3.50;1.83;;;;;;;;;;5014515;28;20045;-72
2022/07/27 02:21:11;;;;;;;5.97;2.00;;;13.20;99.90;;;;;;5044294;28;20049;-72
2022/07/27 02:23:37;;;;;;;5.65;2.72;;;13.10;99.90;;;;;;5044143;28;20045;-72
2022/07/27 02:26:05;;;;;;;6.55;2.50;;;13.10;99.90;;;;;;5043869;28;20178;-73
2022/07/27 02:28:31;;;;;;;4.82;2.20;;;13.20;99.90;;;;;;5047916;28;20037;-73
2022/07/27 02:30:56;;;;;;;5.03;2.17;;;13.20;99.90;;;;;;5045193;28;20046;-72
2022/07/27 02:33:22;;;;;;;3.28;2.15;;;13.10;99.90;;;;;;5042986;28;20037;-72
2022/07/27 02:35:48;;;;;;;4.00;2.10;;;13.20;99.90;;;;;;5044962;28;20509;-70
2022/07/27 02:38:13;;;;;;;4.43;2.25;;;13.20;99.90;;;;;;5026927;28;20038;-71
2022/07/27 02:40:39;;;;;;;3.00;1.88;;;13.20;99.90;;;;;;5096642;22;20049;-48
2022/07/27 02:43:04;;;;;;;6.53;2.30;;;13.20;99.90;;;;;;5039750;28;21674;-49
2022/07/27 02:45:30;;;;;;;7.20;2.47;;;13.20;99.90;;;;;;5059632;28;20619;-52
2022/07/27 02:47:56;;;;;;;5.47;2.15;;;13.20;99.90;;;;;;5054382;28;20127;-46
2022/07/27 02:50:21;;;;;;;5.18;2.17;;;13.20;99.90;;;;;;5061480;28;20144;-47
2022/07/27 02:52:47;;;;;;;5.85;2.20;;;13.20;99.90;;;;;;5061615;28;20051;-46
2022/07/27 02:55:12;;;;;;;3.45;2.13;;;13.20;99.90;;;;;;5057647;28;20051;-51
2022/07/27 02:57:39;;;;;;;3.28;2.00;;;13.20;99.90;;;;;;5059292;28;20480;-46
2022/07/27 03:00:11;;;;;;;7.60;2.47;;;13.20;99.90;;;;;;5057876;28;20098;-47
2022/07/27 03:02:37;;;;;;;6.55;2.65;;;13.20;99.90;;;;;;5056317;28;20129;-50
2022/07/27 03:05:04;;;;;;;4.18;2.70;;;13.20;99.90;;;;;;5054619;28;20044;-48
2022/07/27 03:07:30;;;;;;;3.17;2.40;;;13.20;99.90;;;;;;5057195;28;20037;-50
2022/07/27 03:09:55;;;;;;;7.15;2.30;;;13.10;99.90;;;;;;5052595;28;20476;-46
2022/07/27 03:12:21;;;;;;;5.60;2.47;;;13.10;99.90;;;;;;5057514;28;20545;-47
2022/07/27 03:14:47;;;;;;;5.70;2.58;;;13.10;99.90;;;;;;5056698;28;20067;-49
2022/07/27 03:17:12;;;;;;;6.15;2.53;;;13.10;99.90;;;;;;5039115;28;20048;-49
2022/07/27 03:19:38;;;;;;;3.33;2.50;;;13.00;99.90;;;;;;5057066;28;20087;-46
2022/07/27 03:22:03;;;;;;;6.18;2.78;;;12.90;99.90;;;;;;5055953;28;20157;-46
2022/07/27 03:24:29;;;;;;;3.97;2.38;;;12.80;99.90;;;;;;5057501;28;20159;-49
2022/07/27 03:26:54;;;;;;;6.20;2.80;;;12.80;99.90;;;;;;5055127;28;20423;-49
2022/07/27 03:29:20;;;;;;;7.03;2.42;;;12.70;99.90;;;;;;5056620;28;20037;-46
2022/07/27 03:31:46;;;;;;;3.30;2.45;;;12.60;99.90;;;;;;5042149;28;20041;-46
2022/07/27 03:34:11;;;;;;;5.13;2.58;;;12.60;99.90;;;;;;5036828;28;20080;-47
2022/07/27 03:36:37;;;;;;;4.78;2.58;;;12.50;99.90;;;;;;5056170;28;20037;-50
2022/07/27 03:39:02;;;;;;;5.03;3.03;;;12.60;99.90;;;;;;5059689;28;20090;-46
2022/07/27 03:41:28;;;;;;;4.00;2.60;;;12.40;99.90;;;;;;5035906;28;20053;-46
2022/07/27 03:43:53;;;;;;;7.13;2.95;;;12.30;99.90;;;;;;5057485;28;20450;-50
2022/07/27 03:46:19;;;;;;;4.13;2.65;;;12.20;99.90;;;;;;5056357;28;20101;-49
2022/07/27 03:48:44;;;;;;;2.85;2.40;;;12.30;99.90;;;;;;5049393;28;20048;-51
2022/07/27 03:51:10;;;;;;;4.22;3.40;;;12.10;99.90;;;;;;5058847;28;20039;-48
2022/07/27 03:53:36;;;;;;;5.63;3.20;;;12.20;99.90;;;;;;5054915;28;20515;-47
2022/07/27 03:56:01;;;;;;;11.75;3.40;;;12.10;99.90;;;;;;5050800;28;20036;-46
2022/07/27 03:58:27;;;;;;;5.75;3.25;;;12.00;99.90;;;;;;5049070;28;20476;-46
2022/07/27 04:00:53;;;;;;;4.20;3.10;;;12.10;99.90;;;;;;5057826;28;20078;-48
2022/07/27 04:03:18;;;;;;;4.55;3.30;;;12.00;99.90;;;;;;5056371;28;20040;-47
2022/07/27 04:05:44;;;;;;;8.50;4.00;;;12.00;99.90;;;;;;5055873;28;20468;-47
2022/07/27 04:08:09;;;;;;;5.03;3.38;;;12.00;99.90;;;;;;5052545;28;20033;-47
2022/07/27 04:10:35;;;;;;;6.55;3.83;;;12.00;99.90;;;;;;5056032;28;20049;-48
2022/07/27 04:13:00;;;;;;;6.97;4.03;;;12.00;99.90;;;;;;5053283;28;20143;-48
2022/07/27 04:15:26;;;;;;;5.28;4.32;;;12.00;99.90;;;;;;5055168;28;20048;-46
2022/07/27 04:17:52;;;;;;;7.97;4.57;;;12.10;99.90;;;;;;5054038;28;20116;-47
2022/07/27 04:20:18;;;;;;;7.55;4.32;;;12.10;99.90;;;;;;5054881;28;20154;-47
2022/07/27 04:22:44;;;;;;;7.43;4.22;;;12.10;99.90;;;;;;5051981;28;20045;-46
2022/07/27 04:25:10;;;;;;;6.40;4.13;;;;;;;;;;5049536;28;20037;-52
2022/07/27 04:27:36;;;;;;;6.40;4.40;;;12.40;99.90;;;;;;5055850;28;20537;-46
2022/07/27 04:30:03;;;;;;;7.47;4.13;;;12.50;99.90;;;;;;5055211;28;20074;-46
2022/07/27 04:32:28;;;;;;;4.68;3.63;;;12.50;99.90;;;;;;5051942;28;20037;-46
2022/07/27 04:34:54;;;;;;;3.75;3.20;;;12.60;99.90;;;;;;5052987;28;20037;-48
2022/07/27 04:37:20;;;;;;;6.78;3.40;;;12.70;99.90;;;;;;5054347;28;20072;-45
2022/07/27 04:39:45;;;;;;;4.78;2.92;;;12.70;99.90;;;;;;5050388;28;20040;-46
2022/07/27 04:42:11;;;;;;;5.68;3.33;;;12.80;99.90;;;;;;5052640;28;20040;-48
2022/07/27 04:44:37;;;;;;;5.55;3.10;;;12.90;99.90;;;;;;5055306;28;20059;-49
2022/07/27 04:47:02;;;;;;;6.28;3.38;;;13.00;99.90;;;;;;5055566;28;20075;-48
2022/07/27 04:49:28;;;;;;;8.02;3.67;;;13.30;99.90;;;;;;5057125;28;20090;-47
2022/07/27 04:51:53;;;;;;;9.88;4.45;;;13.50;99.90;;;;;;5055863;28;20189;-47
2022/07/27 04:54:19;;;;;;;4.80;3.70;;;15.10;99.90;;;;;;5054768;28;20047;-51
2022/07/27 04:56:45;;;;;;;4.93;3.15;;;16.00;99.90;;;;;;5059869;28;20696;-50
2022/07/27 04:59:10;;;;;;;5.72;3.13;;;16.10;99.90;;;;;;5057774;28;20037;-47
2022/07/27 05:01:36;;;;;;;6.90;2.97;;;16.90;99.90;;;;;;5054966;28;20048;-44
2022/07/27 05:04:03;;;;;;;4.57;2.65;;;17.00;99.90;;;;;;5061274;28;20138;-47
2022/07/27 05:06:31;;;;;;;6.90;2.80;;;16.60;99.90;;;;;;5059170;28;20049;-47
2022/07/27 05:08:57;;;;;;;4.32;2.90;;;16.30;99.90;;;;;;5059747;28;20076;-45
2022/07/27 05:11:23;;;;;;;5.88;3.22;;;16.00;99.90;;;;;;5050991;28;20074;-46
2022/07/27 05:13:49;;;;;;;6.80;3.15;;;15.60;99.90;;;;;;5039399;28;20474;-45
2022/07/27 05:16:15;;;;;;;5.65;3.13;;;15.50;99.90;;;;;;5054306;28;20040;-48
2022/07/27 05:18:40;;;;;;;5.93;3.30;;;15.30;99.90;;;;;;5058382;28;20045;-45
2022/07/27 05:21:07;;;;;;;5.15;2.95;;;15.20;99.90;;;;;;5056709;28;20036;-47
2022/07/27 05:23:33;;;;;;;4.72;2.70;;;15.10;99.90;;;;;;5051818;28;20468;-45
2022/07/27 05:25:58;;;;;;;6.85;3.17;;;15.00;99.90;;;;;;5039249;28;20052;-45
2022/07/27 05:28:24;;;;;;;13.13;3.30;;;15.00;99.90;;;;;;5051901;28;20045;-53
2022/07/27 05:30:50;;;;;;;5.35;3.03;;;15.00;99.90;;;;;;5037576;28;20064;-46
2022/07/27 05:33:16;;;;;;;10.48;3.15;;;15.00;99.90;;;;;;5054531;28;20036;-51
2022/07/27 05:35:41;;;;;;;9.88;3.25;;;15.10;99.90;;;;;;5051711;28;20051;-48
2022/07/27 05:38:07;;;;;;;8.93;2.90;;;15.10;99.90;;;;;;5055574;28;20045;-48
2022/07/27 05:40:33;;;;;;;7.40;2.90;;;15.10;99.90;;;;;;5050307;28;20049;-48
2022/07/27 05:42:58;;;;;;;6.50;2.85;;;15.20;99.90;;;;;;5048666;28;20067;-46
2022/07/27 05:45:25;;;;;;;7.05;3.08;;;15.20;99.90;;;;;;5049825;28;20119;-47
2022/07/27 05:47:51;;;;;;;4.65;2.60;;;15.20;99.90;;;;;;5052765;28;20114;-46
2022/07/27 05:50:17;;;;;;;4.07;2.80;;;15.30;99.90;;;;;;5054063;28;20053;-49
2022/07/27 05:52:43;;;;;;;5.82;2.88;;;15.40;99.90;;;;;;5053632;28;20698;-48
2022/07/27 05:55:09;;;;;;;8.70;3.45;;;15.40;99.90;;;;;;5054036;28;20068;-45
2022/07/27 05:57:36;;;;;;;6.75;2.58;;;15.50;99.90;;;;;;5053418;28;20033;-49
2022/07/27 06:00:04;;;;;;;13.88;3.38;;;15.70;99.90;;;;;;5050810;28;20041;-47
2022/07/27 06:02:30;;;;;;;8.50;3.00;;;15.70;99.90;;;;;;5057303;28;20033;-47
2022/07/27 06:04:56;;;;;;;4.28;2.50;;;15.90;99.90;;;;;;5060056;28;20043;-47
2022/07/27 06:10:06;;;;;;;5.63;2.75;;;15.90;99.90;;;;;;5056015;28;20581;-52
2022/07/27 06:12:40;;;;;;;7.47;2.67;;;16.00;99.90;;;;;;5046485;28;20441;-45
2022/07/27 06:15:07;;;;;;;6.07;2.80;;;16.00;99.90;;;;;;5056196;28;20053;-47
2022/07/27 06:17:33;;;;;;;5.40;2.40;;;16.00;99.90;;;;;;5058637;28;20044;-48
2022/07/27 06:19:59;;;;;;;6.18;2.80;;;16.10;99.90;;;;;;5057920;28;20036;-50
2022/07/27 06:22:25;;;;;;;5.97;2.42;;;16.20;99.90;;;;;;5059853;28;20120;-47
2022/07/27 06:24:50;;;;;;;5.07;2.80;;;16.20;99.90;;;;;;5055251;28;20033;-45
2022/07/27 06:27:16;;;;;;;6.88;2.70;;;16.30;99.90;;;;;;5057219;28;20465;-48
2022/07/27 06:29:41;;;;;;;5.55;2.65;;;16.40;99.90;;;;;;5056206;28;20043;-46
2022/07/27 06:32:07;;;;;;;6.13;2.58;;;16.50;99.90;;;;;;5059197;28;20413;-45
2022/07/27 06:34:33;;;;;;;4.68;2.20;;;16.60;99.90;;;;;;5053717;28;20055;-45
2022/07/27 06:36:59;;;;;;;10.35;2.95;;;16.70;99.90;;;;;;5059613;28;20041;-46
2022/07/27 06:39:25;;;;;;;5.75;2.13;;;16.80;99.90;;;;;;5056900;28;20132;-47
2022/07/27 06:41:50;;;;;;;7.78;2.13;;;16.80;99.90;;;;;;5055258;28;20454;-46
2022/07/27 06:44:16;;;;;;;3.75;2.10;;;16.80;99.90;;;;;;5053874;28;20045;-45
2022/07/27 06:46:42;;;;;;;7.38;1.80;;;16.90;99.90;;;;;;5056578;28;20396;-48
2022/07/27 06:49:08;;;;;;;6.25;1.80;;;16.70;99.90;;;;;;5056727;28;20473;-51
2022/07/27 06:51:33;;;;;;;4.28;2.00;;;16.60;99.90;;;;;;5054793;28;20421;-48
2022/07/27 06:53:59;;;;;;;7.82;2.30;;;16.60;99.90;;;;;;5056028;28;20128;-47
2022/07/27 06:56:25;;;;;;;5.15;2.10;;;16.50;99.90;;;;;;5058260;28;20037;-49
2022/07/27 06:58:51;;;;;;;4.18;2.05;;;16.40;99.90;;;;;;5057261;28;20476;-45
2022/07/27 07:01:17;;;;;;;7.35;2.38;;;16.40;99.90;;;;;;5053860;28;20416;-49
2022/07/27 07:03:43;;;;;;;5.80;2.20;;;16.50;99.90;;;;;;5049933;28;20045;-47
2022/07/27 07:06:09;;;;;;;6.20;2.60;;;16.40;99.90;;;;;;5055734;28;20127;-47
2022/07/27 07:08:34;;;;;;;5.95;2.70;;;16.40;99.90;;;;;;5053035;28;20143;-47
2022/07/27 07:11:00;;;;;;;4.90;2.40;;;16.50;99.90;;;;;;5056108;28;20044;-49
2022/07/27 07:13:26;;;;;;;5.40;2.35;;;16.50;99.90;;;;;;5058065;28;20032;-47
2022/07/27 07:15:52;;;;;;;6.90;2.58;;;16.60;99.90;;;;;;5057581;28;20045;-47
2022/07/27 07:18:17;;;;;;;8.93;2.75;;;16.60;99.90;;;;;;5052664;28;20059;-47
2022/07/27 07:20:43;;;;;;;6.72;2.22;;;16.60;99.90;;;;;;5054189;28;20037;-46
2022/07/27 07:23:09;;;;;;;4.72;1.95;;;16.60;99.90;;;;;;5052883;28;20080;-46
2022/07/27 07:25:36;;;;;;;3.92;1.70;;;16.60;99.90;;;;;;5057545;28;20475;-46
2022/07/27 07:28:02;;;;;;;6.72;1.80;;;16.60;99.90;;;;;;5053050;28;20045;-46
2022/07/27 07:30:28;;;;;;;6.00;1.92;;;16.80;99.90;;;;;;5057573;28;20076;-47
2022/07/27 07:32:54;;;;;;;5.60;1.70;;;17.00;99.90;;;;;;5053408;28;21961;-48
2022/07/27 07:35:20;;;;;;;4.43;1.42;;;17.10;99.90;;;;;;5055904;28;20113;-47
2022/07/27 07:37:45;;;;;;;4.70;1.90;;;17.20;99.90;;;;;;5051226;28;20072;-49
2022/07/27 07:40:11;;;;;;;6.10;1.63;;;17.10;99.90;;;;;;5053189;28;20155;-48
2022/07/27 07:43:01;;;;;;;8.52;2.28;;;16.80;99.90;;;;;;5052198;28;20128;-49
2022/07/27 07:45:29;;;;;;;7.05;1.80;;;16.70;99.90;;;;;;5053030;28;20461;-47
2022/07/27 07:47:54;;;;;;;;;;;17.00;99.90;;;;;;5059644;28;20040;-46
2022/07/27 07:50:20;;;;;;;6.22;1.58;;;17.10;99.90;;;;;;5066260;28;20435;-47
2022/07/27 07:52:51;;;;;;;3.30;1.52;;;;;;;;;;5060373;28;20064;-50
2022/07/27 07:55:21;;;;;;;5.45;1.52;;;18.20;99.90;;;;;;5054934;28;20051;-47
2022/07/27 07:57:47;;;;;;;6.18;1.60;;;18.20;99.90;;;;;;5068061;28;20072;-47
2022/07/27 08:00:13;;;;;;;3.95;1.25;;;18.40;99.90;;;;;;5060831;28;20056;-47
2022/07/27 08:02:48;;;;;;;6.18;1.58;;;18.10;99.90;;;;;;5058993;28;20599;-48
2022/07/27 08:05:15;;;;;;;5.05;1.35;;;18.00;99.90;;;;;;5052773;28;20029;-50
2022/07/27 08:07:42;;;;;;;5.07;1.40;;;17.90;99.90;;;;;;5059486;28;20051;-46
2022/07/27 08:10:10;;;;;;;3.97;1.63;;;18.20;99.90;;;;;;5059526;28;20119;-48
2022/07/27 08:12:37;;;;;;;4.63;1.20;;;18.50;99.90;;;;;;5054582;28;20071;-49
2022/07/27 08:15:05;;;;;;;3.17;1.10;;;18.60;99.90;;;;;;5058636;28;20059;-46
2022/07/27 08:17:31;;;;;;;;;;;18.80;99.90;;;;;;5060892;28;20082;-46
2022/07/27 08:19:56;;;;;;;4.80;1.50;;;19.30;99.90;;;;;;5055578;28;19920;-47
2022/07/27 08:22:23;;;;;;;4.40;1.40;;;19.20;99.90;;;;;;5056862;28;20037;-49
2022/07/27 08:24:48;;;;;;;5.47;1.20;;;18.90;99.90;;;;;;5057571;28;20494;-50
2022/07/27 08:27:14;;;;;;;2.13;1.10;;;19.20;99.90;;;;;;5056603;28;20080;-49
2022/07/27 08:29:40;;;;;;;2.90;1.17;;;19.20;99.90;;;;;;5056186;28;20063;-48
2022/07/27 08:32:05;;;;;;;2.83;0.88;;;19.40;99.90;;;;;;5053979;28;20041;-48
2022/07/27 08:34:31;;;;;;;3.85;1.05;;;19.40;99.90;;;;;;5057917;28;20044;-49
2022/07/27 08:36:57;;;;;;;4.35;0.98;;;19.50;99.90;;;;;;5062238;28;20082;-50
2022/07/27 08:39:23;;;;;;;2.40;1.00;;;19.60;99.90;;;;;;5048540;28;20130;-51
2022/07/27 08:41:52;;;;;;;2.75;0.70;;;19.80;99.90;;;;;;5054192;28;20550;-49
2022/07/27 08:44:22;;;;;;;3.80;1.00;;;19.90;99.90;;;;;;5055923;28;20496;-47
2022/07/27 08:46:49;;;;;;;1.65;0.85;;;20.40;99.90;;;;;;5058119;28;20052;-50
2022/07/27 08:49:16;;;;;;;3.28;0.80;;;20.30;99.90;;;;;;5055614;28;20139;-47
2022/07/27 08:51:42;;;;;;;2.42;0.85;;;20.50;99.90;;;;;;5059211;28;20051;-47
2022/07/27 08:54:08;;;;;;;3.05;0.85;;;20.20;99.90;;;;;;5053747;28;20107;-50
2022/07/27 08:56:34;;;;;;;2.03;0.80;;;20.60;99.90;;;;;;5055334;28;20103;-46
2022/07/27 08:58:59;;;;;;;5.57;1.02;;;21.00;99.90;;;;;;5050696;28;20408;-48
2022/07/27 09:01:25;;;;;;;4.05;1.23;;;20.70;99.90;;;;;;5053002;28;20085;-47
2022/07/27 09:03:51;;;;;;;2.50;0.80;;;20.80;99.90;;;;;;5055081;28;20159;-51
2022/07/27 09:06:50;;;;;;;4.80;1.20;;;21.10;99.90;;;;;;5057182;28;20064;-52
2022/07/27 09:09:18;;;;;;;3.85;1.05;;;21.00;99.90;;;;;;5057436;28;20047;-47
2022/07/27 09:12:02;;;;;;;2.78;0.98;;;21.00;99.90;;;;;;5056553;28;20033;-46
2022/07/27 09:14:34;;;;;;;1.55;1.00;;;21.20;99.90;;;;;;5054765;28;20542;-46
2022/07/27 09:17:22;;;;;;;1.92;0.95;;;21.80;99.90;;;;;;5053618;28;20033;-46
2022/07/27 09:20:05;;;;;;;3.40;1.05;;;22.00;99.90;;;;;;5054757;28;20052;-48
2022/07/27 09:22:51;;;;;;;3.80;0.88;;;21.60;99.80;;;;;;5054344;28;20509;-48
2022/07/27 09:25:22;;;;;;;4.60;0.95;;;21.10;99.90;;;;;;5053542;28;20045;-51
2022/07/27 09:27:52;;;;;;;4.00;0.90;;;21.30;99.90;;;;;;5060663;28;20036;-48
2022/07/27 09:30:19;;;;;;;3.22;1.00;;;21.30;99.90;;;;;;5068865;28;20051;-49
2022/07/27 09:32:59;;;;;;;3.10;1.05;;;21.60;99.90;;;;;;5065074;28;20150;-51
2022/07/27 09:35:33;;;;;;;1.23;0.98;;;21.90;99.90;;;;;;5068947;28;20041;-46
2022/07/27 09:38:22;;;;;;;2.88;1.13;;;21.70;99.90;;;;;;5065441;28;20310;-51
2022/07/27 09:41:01;;;;;;;5.47;0.98;;;21.80;99.90;;;;;;5065601;28;20110;-46
2022/07/27 09:43:27;;;;;;;1.92;0.75;;;22.20;99.90;;;;;;5067835;28;20127;-49
2022/07/27 09:45:53;;;;;;;4.45;0.90;;;22.10;98.30;;;;;;5065450;28;20041;-46
2022/07/27 09:48:21;;;;;;;3.05;1.00;;;22.10;97.90;;;;;;5060637;28;20419;-46
2022/07/27 09:51:08;;;;;;;2.10;0.75;;;22.40;96.30;;;;;;5065397;28;20048;-47
2022/07/27 09:53:35;;;;;;;2.65;1.13;;;22.60;96.70;;;;;;5054513;28;20079;-46
2022/07/27 09:56:12;;;;;;;2.45;1.00;;;22.70;94.60;;;;;;5069296;28;20048;-47
2022/07/27 09:58:43;;;;;;;2.90;1.08;;;22.60;95.20;;;;;;5070145;28;20051;-46
2022/07/27 10:01:19;;;;;;;2.70;1.00;;;22.30;95.10;;;;;;5067505;28;20047;-46
2022/07/27 10:03:46;;;;;;;5.65;1.02;;;22.10;95.40;;;;;;5070749;28;20084;-48
2022/07/27 10:06:12;;;;;;;4.70;1.23;;;22.40;95.60;;;;;;5060098;28;20045;-49
2022/07/27 10:08:40;;;;;;;3.53;1.35;;;22.30;96.70;;;;;;5058016;28;20047;-51
2022/07/27 10:11:06;;;;;;;3.67;1.00;;;21.70;96.60;;;;;;5056709;28;20044;-49
2022/07/27 10:13:33;;;;;;;4.80;1.33;;;20.50;98.40;;;;;;5059531;28;20400;-50
2022/07/27 10:16:01;;;;;;;2.90;1.07;;;19.90;99.50;;;;;;5042071;28;20487;-47
2022/07/27 10:18:32;;;;;;;4.45;1.02;;;19.70;99.90;;;;;;5068976;28;20045;-49
2022/07/27 10:21:05;;;;;;;3.55;1.00;;;19.30;99.90;;;;;;5064533;28;20056;-47
2022/07/27 10:23:33;;;;;;;4.13;1.33;;;18.90;99.90;;;;;;5055327;28;20491;-46
2022/07/27 10:26:20;;;;;;;2.53;0.98;;;18.90;99.90;;;;;;5055082;28;20041;-46
2022/07/27 10:28:56;;;;;;;3.88;1.10;;;18.50;99.90;;;;;;5058951;28;20049;-49
2022/07/27 10:31:24;;;;;;;4.90;1.08;;;18.20;99.90;;;;;;5058439;28;20093;-47
2022/07/27 10:33:53;;;;;;;3.75;1.17;;;18.20;99.90;;;;;;5059274;28;20127;-48
2022/07/27 10:36:21;;;;;;;6.10;1.30;;;18.10;99.90;;;;;;5066441;28;20052;-46
2022/07/27 10:38:55;;;;;;;2.60;0.93;;;18.20;99.90;;;;;;5068856;28;20045;-49
2022/07/27 10:41:29;;;;;;;3.40;1.27;;;18.30;99.90;;;;;;5064017;28;20080;-47
2022/07/27 10:44:13;;;;;;;3.63;1.27;;;18.20;99.90;;;;;;5058137;28;20045;-46
2022/07/27 10:46:42;;;;;;;4.35;1.30;;;18.40;99.90;;;;;;5062711;28;20040;-46
2022/07/27 10:49:17;;;;;;;3.63;0.95;;;18.50;99.90;;;;;;5063480;28;20036;-48
2022/07/27 10:51:44;;;;;;;4.47;1.30;;;18.60;99.90;;;;;;5063778;28;20048;-46
2022/07/27 10:54:26;;;;;;;4.38;0.98;;;19.10;99.90;;;;;;5063315;28;20037;-49
2022/07/27 10:56:55;;;;;;;2.08;1.05;;;19.20;99.90;;;;;;5062055;28;20036;-46
2022/07/27 10:59:39;;;;;;;3.35;1.10;;;19.40;99.90;;;;;;5063137;28;20061;-47
2022/07/27 11:02:06;;;;;;;2.35;1.05;;;19.50;99.90;;;;;;5061854;28;20131;-49
2022/07/27 11:04:32;;;;;;;4.13;1.10;;;19.90;99.90;;;;;;5063406;28;20045;-47
2022/07/27 11:07:00;;;;;;;5.78;1.38;;;20.00;99.90;;;;;;5061789;28;20440;-49
2022/07/27 11:09:39;;;;;;;3.13;1.15;;;20.10;99.90;;;;;;5062391;28;20068;-47
2022/07/27 11:12:07;;;;;;;4.45;1.10;;;20.30;99.90;;;;;;5060005;28;20063;-47
2022/07/27 11:14:49;;;;;;;3.95;1.50;;;20.30;99.90;;;;;;5062908;28;20040;-48
2022/07/27 11:17:21;;;;;;;3.15;1.10;;;20.50;99.90;;;;;;5064386;28;20131;-50
2022/07/27 11:20:02;;;;;;;4.53;1.50;;;20.80;99.90;;;;;;5064161;28;20479;-47
2022/07/27 11:22:34;;;;;;;5.20;1.10;;;20.70;99.90;;;;;;5060700;28;20054;-48
2022/07/27 11:25:00;;;;;;;4.18;1.40;;;20.80;99.90;;;;;;5056301;28;20396;-48
2022/07/27 11:27:27;;;;;;;4.50;1.23;;;21.10;99.90;;;;;;5059423;28;20044;-47
2022/07/27 11:29:53;;;;;;;4.55;1.20;;;20.80;99.90;;;;;;5060043;28;20051;-49
2022/07/27 11:32:19;;;;;;;4.07;1.33;;;21.10;99.90;;;;;;5061926;28;20068;-47
2022/07/27 11:34:45;;;;;;;3.22;1.02;;;21.40;99.90;;;;;;5059078;28;20134;-50
2022/07/27 11:37:13;;;;;;;2.28;0.80;;;21.20;99.00;;;;;;5032401;28;20614;-51
2022/07/27 11:39:39;;;;;;;1.75;1.00;;;21.00;99.00;;;;;;5055771;28;20178;-46
2022/07/27 11:42:04;;;;;;;3.10;1.25;;;21.10;98.20;;;;;;5054606;28;20144;-50
2022/07/27 11:44:30;;;;;;;6.85;0.80;;;21.40;98.40;;;;;;5053433;28;20040;-49
2022/07/27 11:46:57;;;;;;;3.15;1.08;;;21.20;97.90;;;;;;5063480;28;20043;-46
2022/07/27 11:49:25;;;;;;;2.38;0.80;;;21.40;98.50;;;;;;5066282;28;20083;-46
2022/07/27 11:51:52;;;;;;;3.10;1.17;;;21.60;97.90;;;;;;5063859;28;20051;-48
2022/07/27 11:54:24;;;;;;;3.17;1.08;;;21.70;97.70;;;;;;5061865;28;20055;-47
2022/07/27 11:57:00;;;;;;;6.05;1.05;;;21.60;98.00;;;;;;5057951;28;20045;-50
2022/07/27 11:59:37;;;;;;;1.52;0.80;;;22.30;98.60;;;;;;5060545;28;20040;-48
2022/07/27 12:02:06;;;;;;;1.65;0.80;;;21.70;97.00;;;;;;5063053;28;20487;-49
2022/07/27 12:04:34;;;;;;;2.22;1.20;;;21.50;97.50;;;;;;5059015;28;20404;-48
2022/07/27 12:07:15;;;;;;;1.50;0.65;;;22.10;97.20;;;;;;5062487;28;20043;-46
2022/07/27 12:10:07;;;;;;;4.10;1.05;;;22.10;96.70;;;;;;5061325;28;20040;-48
2022/07/27 12:12:35;;;;;;;2.67;1.08;;;21.90;96.90;;;;;;5052889;28;20049;-47
2022/07/27 12:15:17;;;;;;;1.45;0.80;;;21.60;97.00;;;;;;5063325;28;20123;-48
2022/07/27 12:17:43;;;;;;;3.70;0.90;;;21.70;97.60;;;;;;5048344;28;20418;-49
2022/07/27 12:20:11;;;;;;;3.97;1.05;;;21.50;96.90;;;;;;5061984;28;20054;-51
2022/07/27 12:22:42;;;;;;;2.22;0.88;;;21.40;95.00;;;;;;5064507;28;20133;-47
2022/07/27 12:25:17;;;;;;;4.65;1.00;;;21.40;95.70;;;;;;5061898;28;20037;-48
2022/07/27 12:27:57;;;;;;;1.25;0.70;;;21.50;95.00;;;;;;5063622;28;20045;-48
2022/07/27 12:30:41;;;;;;;2.78;0.90;;;21.20;94.60;;;;;;5060665;28;20076;-50
2022/07/27 12:33:23;;;;;;;3.97;0.80;;;21.20;95.00;;;;;;5061246;28;20504;-50
2022/07/27 12:35:49;;;;;;;2.45;1.00;;;21.00;95.60;;;;;;5067322;28;20044;-47
2022/07/27 12:38:15;;;;;;;3.10;0.93;;;21.00;95.70;;;;;;5060313;28;20123;-46
2022/07/27 12:40:51;;;;;;;4.72;1.27;;;21.50;95.60;;;;;;5047145;28;20053;-46
2022/07/27 12:43:19;;;;;;;4.07;0.90;;;21.80;97.40;;;;;;5063849;28;20127;-46
2022/07/27 12:45:47;;;;;;;4.32;0.90;;;22.40;96.60;;;;;;5063692;28;20075;-46
2022/07/27 12:48:18;;;;;;;4.15;0.80;;;22.10;94.40;;;;;;5059342;28;20087;-47
2022/07/27 12:50:47;;;;;;;1.83;0.90;;;22.10;94.40;;;;;;5060807;28;20044;-47
2022/07/27 12:53:14;;;;;;;3.30;1.02;;;21.90;94.10;;;;;;5063102;28;20068;-48
2022/07/27 12:55:41;;;;;;;4.20;0.90;;;21.60;94.20;;;;;;5053927;28;20044;-47
2022/07/27 12:58:09;;;;;;;1.70;1.02;;;21.40;94.10;;;;;;5057659;28;20399;-48